Time;durP1;ratioP1;P1;durP2;ratioP2;P2;SDS_P1;SDS_P2;PMS_P1;PMS_P2;Temp;Humidity;BMP_temperature;BMP_pressure;BME280_temperature;BME280_humidity;BME280_pressure;Samples;Min_cycle;Max_cycle;Signal;HPM_P1;HPM_P2
2023/12/11 00:02:07;;;;;;;;;;;;;;;8.49;100.00;99503.78;4983910;28;19957;-78
2023/12/11 00:04:32;;;;;;;;;;;;;;;8.50;100.00;99505.44;4987881;28;19922;-78
2023/12/11 00:06:57;;;;;;;;;;;;;;;8.42;100.00;99492.28;4977427;28;20013;-77
2023/12/11 00:09:22;;;;;;;;;;;;;;;8.40;100.00;99497.03;4993676;28;19926;-77
2023/12/11 00:11:48;;;;;;;;;;;;;;;8.34;100.00;99494.16;4987120;28;19937;-77
2023/12/11 00:14:13;;;;;;;;;;;;;;;8.38;100.00;99494.56;4986017;28;19928;-77
2023/12/11 00:16:38;;;;;;;;;;;;;;;8.32;100.00;99490.88;4982816;28;20381;-77
2023/12/11 00:19:03;;;;;;;;;;;;;;;8.34;100.00;99479.94;4978892;28;20038;-77
2023/12/11 00:21:29;;;;;;;;;;;;;;;8.33;100.00;99492.53;4986071;28;19922;-78
2023/12/11 00:23:54;;;;;;;;;;;;;;;8.33;100.00;99500.56;4988397;28;19930;-78
2023/12/11 00:26:19;;;;;;;;;;;;;;;8.38;100.00;99499.94;4983361;28;19921;-77
2023/12/11 00:28:47;;;;;;;;;;;;;;;8.38;100.00;99497.25;4981128;28;20016;-78
2023/12/11 00:31:12;;;;;;;;;;;;;;;8.17;100.00;99493.88;4978570;28;20395;-77
2023/12/11 00:33:42;;;;;;;;;;;;;;;8.22;100.00;99487.84;4979839;28;19922;-77
2023/12/11 00:36:08;;;;;;;;;;;;;;;8.15;100.00;99500.47;4982128;28;19928;-78
2023/12/11 00:38:33;;;;;;;;;;;;;;;8.02;100.00;99496.81;4981838;28;19922;-77
2023/12/11 00:40:58;;;;;;;;;;;;;;;8.08;100.00;99497.81;4984043;28;19984;-77
2023/12/11 00:43:23;;;;;;;;;;;;;;;7.96;100.00;99503.03;4990396;28;20480;-77
2023/12/11 00:45:49;;;;;;;;;;;;;;;7.92;100.00;99499.16;4984044;28;20302;-77
2023/12/11 00:48:14;;;;;;;;;;;;;;;7.94;100.00;99494.41;4986231;28;19930;-77
2023/12/11 00:50:39;;;;;;;;;;;;;;;7.98;100.00;99490.25;4985887;28;19949;-77
2023/12/11 00:53:04;;;;;;;;;;;;;;;8.06;100.00;99496.41;4985494;28;19925;-77
2023/12/11 00:55:30;;;;;;;;;;;;;;;7.97;100.00;99496.63;4976082;28;19978;-78
2023/12/11 00:57:55;;;;;;;;;;;;;;;8.01;100.00;99503.22;4985033;28;19930;-77
2023/12/11 01:00:22;;;;;;;;;;;;;;;7.96;100.00;99496.84;4982571;28;19930;-77
2023/12/11 01:02:47;;;;;;;;;;;;;;;7.93;100.00;99502.63;4988248;28;19921;-78
2023/12/11 01:05:12;;;;;;;;;;;;;;;7.88;100.00;99492.56;4980715;28;19928;-77
2023/12/11 01:07:38;;;;;;;;;;;;;;;7.79;100.00;99496.50;4986164;28;20362;-78
2023/12/11 01:10:03;;;;;;;;;;;;;;;7.84;100.00;99489.50;4984076;28;19947;-77
2023/12/11 01:12:28;;;;;;;;;;;;;;;7.78;100.00;99484.13;4991872;28;19956;-77
2023/12/11 01:14:53;;;;;;;;;;;;;;;7.81;100.00;99489.91;4983263;28;20524;-77
2023/12/11 01:17:19;;;;;;;;;;;;;;;7.80;100.00;99480.22;4985702;28;20338;-78
2023/12/11 01:19:44;;;;;;;;;;;;;;;7.79;100.00;99483.09;4985979;28;19944;-77
2023/12/11 01:22:09;;;;;;;;;;;;;;;7.86;100.00;99481.22;4982834;28;19968;-77
2023/12/11 01:24:35;;;;;;;;;;;;;;;7.91;100.00;99481.41;4990032;28;19952;-77
2023/12/11 01:27:00;;;;;;;;;;;;;;;7.91;100.00;99489.47;4983769;28;19918;-77
2023/12/11 01:29:25;;;;;;;;;;;;;;;7.98;100.00;99482.19;4978183;28;19965;-77
2023/12/11 01:31:50;;;;;;;;;;;;;;;8.00;100.00;99482.00;4982942;28;20374;-77
2023/12/11 01:34:15;;;;;;;;;;;;;;;7.87;100.00;99490.91;4976335;28;19926;-77
2023/12/11 01:36:42;;;;;;;;;;;;;;;8.00;100.00;99484.69;4981290;28;19985;-76
2023/12/11 01:39:08;;;;;;;;;;;;;;;8.01;100.00;99472.94;4975656;28;20394;-77
2023/12/11 01:41:33;;;;;;;;;;;;;;;8.07;100.00;99461.31;4993328;28;19928;-78
2023/12/11 01:43:58;;;;;;;;;;;;;;;8.12;100.00;99476.78;4992633;28;19924;-78
2023/12/11 01:46:24;;;;;;;;;;;;;;;8.03;100.00;99470.84;4990959;28;19926;-77
2023/12/11 01:48:49;;;;;;;;;;;;;;;8.03;100.00;99466.31;4986207;28;19918;-77
2023/12/11 01:51:15;;;;;;;;;;;;;;;8.02;100.00;99455.81;4987330;28;19934;-77
2023/12/11 01:53:43;;;;;;;;;;;;;;;8.00;100.00;99456.00;4997410;28;19929;-77
2023/12/11 01:56:08;;;;;;;;;;;;;;;7.96;100.00;99459.34;5002334;28;19921;-78
2023/12/11 01:58:43;;;;;;;;;;;;;;;7.85;100.00;99442.88;5036376;23;19941;-78
2023/12/11 02:01:08;;;;;;;;;;;;;;;7.73;100.00;99445.44;5005457;28;19949;-78
2023/12/11 02:03:34;;;;;;;;;;;;;;;7.66;100.00;99444.63;5003009;28;20362;-78
2023/12/11 02:05:59;;;;;;;;;;;;;;;7.65;100.00;99434.94;5024985;23;19929;-78
2023/12/11 02:08:25;;;;;;;;;;;;;;;7.60;100.00;99432.09;4985060;28;19961;-78
2023/12/11 02:10:51;;;;;;;;;;;;;;;7.58;100.00;99426.94;4984639;28;19922;-78
2023/12/11 02:13:16;;;;;;;;;;;;;;;7.49;100.00;99416.69;5004685;28;20464;-78
2023/12/11 02:15:42;;;;;;;;;;;;;;;7.41;100.00;99420.44;4990650;28;20313;-78
2023/12/11 02:18:08;;;;;;;;;;;;;;;7.46;100.00;99422.47;5003646;28;19976;-78
2023/12/11 02:20:34;;;;;;;;;;;;;;;7.44;100.00;99407.44;5010980;28;19926;-78
2023/12/11 02:23:00;;;;;;;;;;;;;;;7.45;100.00;99405.59;5021004;28;19933;-78
2023/12/11 02:25:25;;;;;;;;;;;;;;;7.43;100.00;99399.63;5018403;28;19921;-78
2023/12/11 02:27:50;;;;;;;;;;;;;;;7.45;100.00;99384.16;5013118;28;19922;-78
2023/12/11 02:30:16;;;;;;;;;;;;;;;7.38;100.00;99386.88;5000567;28;19926;-78
2023/12/11 02:32:41;;;;;;;;;;;;;;;7.40;100.00;99376.78;4996839;28;20017;-78
2023/12/11 02:35:06;;;;;;;;;;;;;;;7.40;100.00;99376.78;5005494;28;19933;-78
2023/12/11 02:37:31;;;;;;;;;;;;;;;7.40;100.00;99379.47;5001659;28;19930;-80
2023/12/11 02:39:57;;;;;;;;;;;;;;;7.53;100.00;99391.13;4995056;28;19921;-79
2023/12/11 02:42:22;;;;;;;;;;;;;;;7.59;100.00;99374.19;5004912;28;19936;-80
2023/12/11 02:44:47;;;;;;;;;;;;;;;7.63;100.00;99371.94;5006579;28;20286;-80
2023/12/11 02:47:12;;;;;;;;;;;;;;;7.72;100.00;99376.00;5002575;28;19957;-80
2023/12/11 02:49:38;;;;;;;;;;;;;;;7.83;100.00;99372.66;5000988;28;19929;-81
2023/12/11 02:52:03;;;;;;;;;;;;;;;7.90;100.00;99375.28;4999908;28;19928;-79
2023/12/11 02:54:28;;;;;;;;;;;;;;;7.93;100.00;99366.81;5012716;28;19926;-80
2023/12/11 02:56:54;;;;;;;;;;;;;;;7.90;100.00;99369.91;5015085;28;19921;-80
2023/12/11 02:59:19;;;;;;;;;;;;;;;7.95;100.00;99366.59;5010172;28;19994;-79
2023/12/11 03:01:44;;;;;;;;;;;;;;;7.99;100.00;99373.97;4999868;28;19960;-80
2023/12/11 03:04:10;;;;;;;;;;;;;;;8.06;100.00;99365.06;5015475;28;19929;-80
2023/12/11 03:06:35;;;;;;;;;;;;;;;8.11;100.00;99355.34;5006480;28;19992;-80
2023/12/11 03:09:02;;;;;;;;;;;;;;;8.08;100.00;99352.28;4995617;28;19925;-80
2023/12/11 03:11:28;;;;;;;;;;;;;;;8.09;100.00;99352.03;5008538;28;19921;-81
2023/12/11 03:13:53;;;;;;;;;;;;;;;8.06;100.00;99349.00;5015533;28;20016;-80
2023/12/11 03:16:18;;;;;;;;;;;;;;;8.07;100.00;99343.41;5014657;28;19995;-80
2023/12/11 03:18:45;;;;;;;;;;;;;;;8.02;100.00;99341.38;5018937;23;20330;-84
2023/12/11 03:21:17;;;;;;;;;;;;;;;8.00;100.00;99326.56;5015678;28;20016;-82
2023/12/11 03:35:45;;;;;;;;;;;;;;;7.76;100.00;99329.00;4979859;28;19933;-85
2023/12/11 03:38:10;;;;;;;;;;;;;;;7.84;100.00;99298.44;4985265;28;19926;-83
2023/12/11 03:52:09;;;;;;;;;;;;;;;7.94;100.00;99296.09;4994324;28;19921;-84
2023/12/11 03:54:34;;;;;;;;;;;;;;;7.88;100.00;99287.06;4994376;28;19929;-84
2023/12/11 04:09:07;;;;;;;;;;;;;;;7.99;100.00;99292.78;4992126;28;19996;-85
2023/12/11 04:12:10;;;;;;;;;;;;;;;8.01;100.00;99318.28;4994590;28;19926;-85
2023/12/11 04:14:35;;;;;;;;;;;;;;;7.81;100.00;99301.53;4993095;28;20360;-85
2023/12/11 04:17:09;;;;;;;;;;;;;;;7.79;100.00;99315.16;4994104;28;20016;-84
2023/12/11 04:20:12;;;;;;;;;;;;;;;7.70;100.00;99311.09;4995289;28;19921;-84
2023/12/11 04:22:40;;;;;;;;;;;;;;;7.83;100.00;99304.81;4993974;28;20004;-84
2023/12/11 04:25:05;;;;;;;;;;;;;;;7.79;100.00;99300.94;4993819;28;19944;-84
2023/12/11 04:27:40;;;;;;;;;;;;;;;7.69;100.00;99309.44;4993515;28;20285;-85
2023/12/11 04:30:32;;;;;;;;;;;;;;;7.59;100.00;99309.91;4993478;28;19918;-85
2023/12/11 04:33:10;;;;;;;;;;;;;;;7.57;100.00;99285.25;4994365;28;19924;-85
2023/12/11 04:38:47;;;;;;;;;;;;;;;7.40;100.00;99291.09;5001219;28;19933;-85
2023/12/11 04:41:29;;;;;;;;;;;;;;;7.33;100.00;99284.97;5279111;23;19934;-85
2023/12/11 04:44:10;;;;;;;;;;;;;;;7.46;100.00;99265.31;5010563;28;19961;-84
2023/12/11 04:46:55;;;;;;;;;;;;;;;7.49;100.00;99266.75;5038693;23;19925;-86
2023/12/11 04:49:29;;;;;;;;;;;;;;;7.34;100.00;99275.91;4997988;28;19921;-86
2023/12/11 04:52:38;;;;;;;;;;;;;;;7.35;100.00;99272.19;5003526;23;19928;-85
2023/12/11 04:55:15;;;;;;;;;;;;;;;7.50;100.00;99263.84;4989849;28;19936;-84
2023/12/11 04:57:45;;;;;;;;;;;;;;;7.49;100.00;99280.13;4978379;28;19957;-84
2023/12/11 05:00:33;;;;;;;;;;;;;;;7.49;100.00;99270.25;4974541;28;19937;-83
2023/12/11 05:03:11;;;;;;;;;;;;;;;7.47;100.00;99266.97;4970727;28;19922;-80
2023/12/11 07:23:09;;;;;;;;;;;;;;;7.40;100.00;99200.09;5009168;28;19929;-82
2023/12/11 07:32:19;;;;;;;;;;;;;;;7.25;100.00;99220.97;5005552;28;19922;-82
2023/12/11 07:34:49;;;;;;;;;;;;;;;7.25;100.00;99229.81;4995154;28;19922;-82
2023/12/11 07:37:38;;;;;;;;;;;;;;;7.28;100.00;99217.84;4994595;28;19922;-82
2023/12/11 07:52:17;;;;;;;;;;;;;;;7.33;100.00;99212.69;4984127;28;19996;-82
2023/12/11 07:58:13;;;;;;;;;;;;;;;7.41;100.00;99206.25;4987742;28;19933;-83
2023/12/11 09:50:46;;;;;;;;;;;;;;;8.04;100.00;99432.28;4978724;28;19948;-83
2023/12/11 10:25:41;;;;;;;;;;;;;;;7.61;100.00;99513.25;3181284;22;19930;-82
2023/12/11 10:36:31;;;;;;;;;;;;;;;7.66;100.00;99525.00;5009661;28;19930;-81
2023/12/11 10:51:34;;;;;;;;;;;;;;;7.70;100.00;99565.56;4988555;28;19949;-81
2023/12/11 10:54:41;;;;;;;;;;;;;;;;;;;;;
2023/12/11 11:06:13;;;;;;;;;;;;;;;7.52;100.00;99599.16;4636118;23;19933;-82
2023/12/11 11:19:27;;;;;;;;;;;;;;;7.01;100.00;99618.53;5096023;22;20301;-83
2023/12/11 11:22:16;;;;;;;;;;;;;;;7.07;100.00;99625.75;4993794;28;20007;-81
2023/12/11 11:25:25;;;;;;;;;;;;;;;7.15;100.00;99640.78;4977897;28;19933;-81
2023/12/11 11:28:21;;;;;;;;;;;;;;;7.30;100.00;99636.06;5007600;28;19936;-82
2023/12/11 11:30:48;;;;;;;;;;;;;;;7.40;100.00;99643.69;5008170;28;19922;-82
2023/12/11 11:33:19;;;;;;;;;;;;;;;7.56;100.00;99650.50;4973899;28;20264;-81
2023/12/11 11:36:16;;;;;;;;;;;;;;;7.63;100.00;99659.31;4981186;28;19922;-81
2023/12/11 11:42:19;;;;;;;;;;;;;;;8.09;100.00;99668.31;4999455;28;19922;-81
2023/12/11 11:45:16;;;;;;;;;;;;;;;8.30;100.00;99664.53;4967848;28;19925;-81
2023/12/11 11:48:10;;;;;;;;;;;;;;;8.41;100.00;99675.66;5007329;28;19960;-81
2023/12/11 11:56:49;;;;;;;;;;;;;;;8.17;100.00;99691.41;5003968;28;19959;-80
2023/12/11 11:59:18;;;;;;;;;;;;;;;8.03;100.00;99696.00;5003573;28;19968;-80
2023/12/11 12:02:23;;;;;;;;;;;;;;;7.96;100.00;99689.81;5013737;28;19921;-81
2023/12/11 12:05:06;;;;;;;;;;;;;;;7.88;100.00;99697.00;5001832;28;20453;-80
2023/12/11 12:08:12;;;;;;;;;;;;;;;7.80;100.00;99702.59;4978061;28;20354;-80
2023/12/11 12:14:19;;;;;;;;;;;;;;;;;;;;;
2023/12/11 12:20:33;;;;;;;;;;;;;;;8.33;100.00;99722.31;4893204;29;19938;-82
2023/12/11 12:36:17;;;;;;;;;;;;;;;7.70;100.00;99728.97;4888870;29;19935;-81
2023/12/11 12:39:13;;;;;;;;;;;;;;;7.67;100.00;99757.00;4894733;29;19927;-81
2023/12/11 12:42:27;;;;;;;;;;;;;;;;;;;;;
2023/12/11 12:45:20;;;;;;;;;;;;;;;7.52;100.00;99745.66;4885687;29;19964;-81
2023/12/11 12:48:13;;;;;;;;;;;;;;;7.51;100.00;99744.00;4889041;29;20451;-80
2023/12/11 12:50:57;;;;;;;;;;;;;;;;;;;;;
2023/12/11 12:53:25;;;;;;;;;;;;;;;7.71;100.00;99755.56;4885549;29;19927;-81
2023/12/11 12:56:16;;;;;;;;;;;;;;;7.81;100.00;99747.13;4906440;28;20394;-82
2023/12/11 13:02:13;;;;;;;;;;;;;;;7.77;100.00;99763.78;4972599;28;20008;-81
2023/12/11 13:05:02;;;;;;;;;;;;;;;7.76;99.24;99771.00;4972051;28;19930;-80
2023/12/11 13:07:30;;;;;;;;;;;;;;;7.77;99.63;99777.19;4974236;28;20481;-80
2023/12/11 13:13:10;;;;;;;;;;;;;;;7.70;100.00;99778.03;5000590;28;19928;-81
2023/12/11 13:15:39;;;;;;;;;;;;;;;7.69;98.33;99787.09;4994779;28;19960;-81
2023/12/11 13:18:18;;;;;;;;;;;;;;;7.63;98.96;99795.94;5001880;28;19928;-81
2023/12/11 13:21:07;;;;;;;;;;;;;;;7.59;98.58;99797.34;5012817;23;19941;-80
2023/12/11 13:27:16;;;;;;;;;;;;;;;7.59;96.12;99816.09;5012478;28;20396;-81
2023/12/11 13:29:41;;;;;;;;;;;;;;;7.61;96.89;99816.72;5007514;28;19933;-80
2023/12/11 13:32:15;;;;;;;;;;;;;;;7.58;96.15;99809.13;5004612;28;19918;-81
2023/12/11 13:35:11;;;;;;;;;;;;;;;7.59;94.71;99824.13;5008164;28;19925;-81
2023/12/11 13:40:17;;;;;;;;;;;;;;;7.57;92.66;99829.72;5376007;23;19926;-81
2023/12/11 13:53:04;;;;;;;;;;;;;;;7.53;89.50;99855.25;5094632;23;19926;-80
2023/12/11 13:58:10;;;;;;;;;;;;;;;7.48;90.27;99863.06;4998270;28;19945;-80
2023/12/11 14:01:23;;;;;;;;;;;;;;;7.47;89.43;99861.41;4986806;28;19929;-81
2023/12/11 14:07:13;;;;;;;;;;;;;;;7.46;90.62;99875.00;5012310;23;19926;-79
2023/12/11 14:21:43;;;;;;;;;;;;;;;7.40;95.98;99919.47;5181401;23;19926;-80
2023/12/11 14:24:33;;;;;;;;;;;;;;;7.35;95.83;99925.44;4999889;28;19932;-81
2023/12/11 14:32:30;;;;;;;;;;;;;;;7.38;97.36;99942.94;5114991;22;19930;-81
2023/12/11 14:34:59;;;;;;;;;;;;;;;7.36;97.44;99956.53;4974809;28;19922;-79
2023/12/11 14:56:38;;;;;;;;;;;;;;;7.03;100.00;99983.94;5010932;23;19929;-80
2023/12/11 14:59:19;;;;;;;;;;;;;;;7.02;100.00;99979.59;5001259;28;20271;-81
2023/12/11 15:13:42;;;;;;;;;;;;;;;6.85;100.00;99996.97;5003908;22;20438;-81
2023/12/11 15:16:08;;;;;;;;;;;;;;;6.81;100.00;100008.03;5015869;23;20028;-79
2023/12/11 15:18:33;;;;;;;;;;;;;;;6.76;100.00;100012.31;5001192;28;20420;-80
2023/12/11 15:20:58;;;;;;;;;;;;;;;6.72;100.00;100006.50;5005450;28;19922;-80
2023/12/11 15:23:24;;;;;;;;;;;;;;;6.72;100.00;100001.16;5002913;28;19921;-82
2023/12/11 15:25:49;;;;;;;;;;;;;;;6.70;100.00;100005.91;4999949;28;19937;-80
2023/12/11 15:28:26;;;;;;;;;;;;;;;;;;;;;
2023/12/11 15:34:15;;;;;;;;;;;;;;;6.59;100.00;100001.88;4929705;29;20358;-79
2023/12/11 15:36:41;;;;;;;;;;;;;;;6.58;100.00;100012.75;4923998;29;19919;-78
2023/12/11 15:42:36;;;;;;;;;;;;;;;6.57;100.00;100019.13;4902967;29;19963;-79
2023/12/11 15:45:10;;;;;;;;;;;;;;;6.54;100.00;100028.38;4917655;29;19933;-79
2023/12/11 15:47:46;;;;;;;;;;;;;;;6.48;100.00;100027.28;4915642;29;19927;-79
2023/12/11 16:02:10;;;;;;;;;;;;;;;6.39;100.00;100044.47;4998752;28;19926;-79
2023/12/11 16:04:35;;;;;;;;;;;;;;;6.42;100.00;100057.44;5144749;23;20385;-79
2023/12/11 16:07:01;;;;;;;;;;;;;;;6.40;100.00;100056.00;4997701;28;19929;-79
2023/12/11 16:09:26;;;;;;;;;;;;;;;6.41;100.00;100060.31;5000529;28;20234;-79
2023/12/11 16:11:53;;;;;;;;;;;;;;;6.47;100.00;100062.22;5005626;28;19922;-79
2023/12/11 16:20:09;;;;;;;;;;;;;;;6.46;100.00;100065.91;5061473;23;20138;-78
2023/12/11 16:22:37;;;;;;;;;;;;;;;6.47;100.00;100068.41;4979122;28;20005;-78
2023/12/11 16:28:05;;;;;;;;;;;;;;;6.47;100.00;100068.41;4998231;28;19969;-78
2023/12/11 16:45:34;;;;;;;;;;;;;;;6.49;100.00;100082.44;5005393;28;19944;-79
2023/12/11 16:48:11;;;;;;;;;;;;;;;6.49;100.00;100082.44;5005832;28;19966;-78
2023/12/11 16:51:13;;;;;;;;;;;;;;;6.50;100.00;100084.09;5012052;28;19921;-79
2023/12/11 17:27:15;;;;;;;;;;;;;;;6.36;100.00;100130.38;4992220;28;20008;-78
2023/12/11 17:51:23;;;;;;;;;;;;;;;6.38;100.00;100152.41;5002499;28;20016;-79
2023/12/11 18:27:15;;;;;;;;;;;;;;;6.08;100.00;100192.53;5004951;28;19929;-80
2023/12/11 18:29:47;;;;;;;;;;;;;;;6.13;100.00;100199.97;5002559;28;20289;-80
2023/12/11 18:32:40;;;;;;;;;;;;;;;6.10;100.00;100211.88;5011459;28;19929;-81
2023/12/11 18:35:42;;;;;;;;;;;;;;;6.12;100.00;100217.88;5016912;28;20002;-79
2023/12/11 18:38:42;;;;;;;;;;;;;;;6.10;100.00;100211.03;5005185;28;19925;-80
2023/12/11 18:41:22;;;;;;;;;;;;;;;6.04;100.00;100218.78;4999534;28;19929;-79
2023/12/11 18:46:24;;;;;;;;;;;;;;;6.02;100.00;100222.63;5333682;23;19964;-79
2023/12/11 18:49:14;;;;;;;;;;;;;;;5.98;100.00;100224.00;4990722;28;19925;-78
2023/12/11 18:51:42;;;;;;;;;;;;;;;5.94;100.00;100217.34;5000533;28;19980;-79
2023/12/11 18:54:15;;;;;;;;;;;;;;;5.95;100.00;100216.34;5002799;28;19937;-80
2023/12/11 19:06:00;;;;;;;;;;;;;;;5.89;100.00;100220.59;5008271;28;19922;-79
2023/12/11 19:12:09;;;;;;;;;;;;;;;5.90;100.00;100232.94;5001802;28;20764;-79
2023/12/11 19:14:36;;;;;;;;;;;;;;;5.91;100.00;100246.09;5015151;23;20299;-79
2023/12/11 19:17:08;;;;;;;;;;;;;;;5.89;100.00;100252.63;5157811;23;19939;-79
2023/12/11 19:19:47;;;;;;;;;;;;;;;5.89;100.00;100241.94;5196112;23;19972;-79
2023/12/11 19:27:32;;;;;;;;;;;;;;;5.91;100.00;100255.97;5042740;23;19929;-80
2023/12/11 19:29:57;;;;;;;;;;;;;;;5.91;100.00;100251.44;5006072;28;19922;-79
2023/12/11 19:32:23;;;;;;;;;;;;;;;5.91;100.00;100256.78;5008926;28;20389;-79
2023/12/11 19:34:48;;;;;;;;;;;;;;;5.94;100.00;100254.75;4984297;28;19937;-79
2023/12/11 19:40:08;;;;;;;;;;;;;;;5.92;100.00;100266.47;5008193;23;19926;-78
2023/12/11 19:42:33;;;;;;;;;;;;;;;5.91;100.00;100270.13;4974321;28;19966;-80
2023/12/11 19:45:10;;;;;;;;;;;;;;;5.87;100.00;100263.50;4957623;28;19964;-80
2023/12/11 19:47:36;;;;;;;;;;;;;;;5.91;100.00;100266.66;4973264;28;19950;-80
2023/12/11 19:53:03;;;;;;;;;;;;;;;5.91;100.00;100278.16;4991485;23;19958;-79
2023/12/11 19:55:29;;;;;;;;;;;;;;;5.89;100.00;100279.34;4990852;28;19922;-79
2023/12/11 19:58:29;;;;;;;;;;;;;;;5.85;100.00;100284.19;4988843;28;19965;-81
2023/12/11 20:19:12;;;;;;;;;;;;;;;5.77;100.00;100298.47;5005346;28;20094;-79
2023/12/11 20:22:06;;;;;;;;;;;;;;;5.80;100.00;100291.94;5040472;23;19929;-80
2023/12/11 20:30:38;;;;;;;;;;;;;;;5.85;100.00;100300.22;4990125;28;20582;-80
2023/12/11 20:33:19;;;;;;;;;;;;;;;5.90;100.00;100313.06;4985869;28;19926;-80
2023/12/11 20:39:07;;;;;;;;;;;;;;;5.92;100.00;100319.88;5000318;28;19932;-80
2023/12/11 20:41:37;;;;;;;;;;;;;;;5.84;100.00;100325.28;5013572;28;20292;-80
2023/12/11 20:46:41;;;;;;;;;;;;;;;5.86;100.00;100323.25;4990662;28;19926;-80
2023/12/11 20:49:10;;;;;;;;;;;;;;;5.85;100.00;100321.59;4969928;28;19921;-78
2023/12/11 20:51:36;;;;;;;;;;;;;;;5.89;100.00;100322.09;4992087;28;19957;-77
2023/12/11 20:54:03;;;;;;;;;;;;;;;5.92;100.00;100327.06;4993829;28;19922;-78
2023/12/11 20:59:33;;;;;;;;;;;;;;;5.89;100.00;100314.91;4943031;22;2209886;-79
2023/12/11 21:02:00;;;;;;;;;;;;;;;5.89;100.00;100322.91;5001631;28;19929;-78
2023/12/11 21:04:28;;;;;;;;;;;;;;;5.88;100.00;100315.09;5008437;28;20004;-78
2023/12/11 21:06:55;;;;;;;;;;;;;;;5.90;100.00;100315.75;4982536;28;19928;-78
2023/12/11 21:09:21;;;;;;;;;;;;;;;5.96;100.00;100316.88;4983762;28;19941;-78
2023/12/11 21:11:49;;;;;;;;;;;;;;;5.92;100.00;100316.38;4998780;28;19922;-79
2023/12/11 21:14:15;;;;;;;;;;;;;;;6.03;100.00;100317.81;4998539;28;19929;-78
2023/12/11 21:16:41;;;;;;;;;;;;;;;5.95;100.00;100325.88;4988309;28;19922;-78
2023/12/11 21:19:06;;;;;;;;;;;;;;;5.99;100.00;100327.19;4992220;28;19929;-78
2023/12/11 21:21:33;;;;;;;;;;;;;;;5.94;100.00;100329.56;5012347;28;19928;-78
2023/12/11 21:23:59;;;;;;;;;;;;;;;5.95;100.00;100323.22;5005511;28;19925;-79
2023/12/11 21:31:50;;;;;;;;;;;;;;;6.04;100.00;100335.50;5068914;23;20297;-78
2023/12/11 21:34:15;;;;;;;;;;;;;;;6.06;100.00;100338.84;5008533;28;19964;-78
2023/12/11 21:36:53;;;;;;;;;;;;;;;6.07;100.00;100335.16;4995327;28;19960;-80
2023/12/11 21:39:20;;;;;;;;;;;;;;;6.07;100.00;100340.50;4998035;28;19977;-79
2023/12/11 21:41:45;;;;;;;;;;;;;;;6.10;100.00;100340.16;4978684;28;19960;-79
2023/12/11 21:44:10;;;;;;;;;;;;;;;6.04;100.00;100341.69;5006586;28;20336;-79
2023/12/11 21:46:36;;;;;;;;;;;;;;;6.04;100.00;100341.69;5001619;28;20016;-79
2023/12/11 21:49:01;;;;;;;;;;;;;;;6.13;100.00;100339.78;5002112;28;19921;-79
2023/12/11 21:51:39;;;;;;;;;;;;;;;6.05;100.00;100343.38;4999256;28;20305;-79
2023/12/11 21:54:10;;;;;;;;;;;;;;;6.03;100.00;100344.53;5021142;28;19926;-79
2023/12/11 21:56:37;;;;;;;;;;;;;;;6.02;100.00;100343.72;4987562;28;19965;-79
2023/12/11 21:59:18;;;;;;;;;;;;;;;6.02;100.00;100348.22;4988147;28;20101;-79
2023/12/11 22:01:49;;;;;;;;;;;;;;;6.06;100.00;100349.53;4996310;28;19997;-79
2023/12/11 22:04:17;;;;;;;;;;;;;;;6.03;100.00;100355.22;4997139;28;19921;-79
2023/12/11 22:06:47;;;;;;;;;;;;;;;6.01;100.00;100352.75;4996743;28;20008;-80
2023/12/11 22:09:16;;;;;;;;;;;;;;;6.04;100.00;100356.88;5004330;28;19925;-79
2023/12/11 22:11:51;;;;;;;;;;;;;;;6.00;100.00;100359.09;5009466;28;20400;-80
2023/12/11 22:21:54;;;;;;;;;;;;;;;6.03;100.00;100371.25;5110422;23;19941;-80
2023/12/11 22:24:20;;;;;;;;;;;;;;;6.01;100.00;100373.28;5000894;28;19922;-80
2023/12/11 22:26:51;;;;;;;;;;;;;;;6.05;100.00;100385.28;5009867;28;19928;-80
2023/12/11 22:29:17;;;;;;;;;;;;;;;6.06;100.00;100397.63;5001178;28;19929;-80
2023/12/11 22:36:51;;;;;;;;;;;;;;;6.28;100.00;100400.47;4976706;28;20306;-79
2023/12/11 22:42:26;;;;;;;;;;;;;;;6.41;100.00;100395.34;5125153;22;19921;-80
2023/12/11 22:45:22;;;;;;;;;;;;;;;6.40;100.00;100392.84;5033413;28;19913;-80
2023/12/11 22:51:11;;;;;;;;;;;;;;;6.46;100.00;100392.97;5010859;28;20012;-79
2023/12/11 22:53:38;;;;;;;;;;;;;;;6.30;100.00;100401.13;5016502;28;20304;-80
2023/12/11 22:59:29;;;;;;;;;;;;;;;6.20;100.00;100399.50;4965569;28;19933;-80
2023/12/11 23:05:05;;;;;;;;;;;;;;;6.20;100.00;100399.50;4964745;28;20402;-80
2023/12/11 23:07:31;;;;;;;;;;;;;;;6.17;100.00;100405.25;4986210;23;20326;-80
2023/12/11 23:09:56;;;;;;;;;;;;;;;6.17;100.00;100409.75;4987573;28;19926;-80
2023/12/11 23:12:24;;;;;;;;;;;;;;;5.94;100.00;100407.03;5004518;28;19917;-80
2023/12/11 23:14:49;;;;;;;;;;;;;;;5.92;100.00;100416.06;4998815;28;19941;-80
2023/12/11 23:17:14;;;;;;;;;;;;;;;5.97;100.00;100409.38;5000711;28;19918;-79
2023/12/11 23:19:39;;;;;;;;;;;;;;;5.88;100.00;100398.72;4996324;28;19933;-79
2023/12/11 23:25:07;;;;;;;;;;;;;;;5.85;100.00;100396.41;5166775;23;19933;-79
2023/12/11 23:27:35;;;;;;;;;;;;;;;5.84;100.00;100400.06;4993487;28;19984;-78
2023/12/11 23:36:24;;;;;;;;;;;;;;;5.77;100.00;100391.13;4995565;28;19933;-80
2023/12/11 23:42:15;;;;;;;;;;;;;;;5.71;100.00;100399.84;4996425;28;19944;-80
2023/12/11 23:44:40;;;;;;;;;;;;;;;5.64;100.00;100405.06;5001469;28;19921;-80
2023/12/11 23:47:05;;;;;;;;;;;;;;;5.66;100.00;100396.84;5006567;28;19927;-79
2023/12/11 23:49:30;;;;;;;;;;;;;;;5.72;100.00;100412.19;5007721;28;19933;-80
2023/12/11 23:51:56;;;;;;;;;;;;;;;5.69;100.00;100404.50;5011338;28;19926;-79
2023/12/11 23:54:24;;;;;;;;;;;;;;;5.68;100.00;100417.06;4997638;28;20020;-80
2023/12/11 23:56:49;;;;;;;;;;;;;;;5.73;100.00;100419.19;5001875;28;20421;-80
2023/12/11 23:59:15;;;;;;;;;;;;;;;5.77;100.00;100409.81;5002024;28;20012;-79
